createdAt,value
2023-02-06T00:00:53.836Z,3.95
2023-02-06T00:03:22.620Z,4.68
2023-02-06T00:05:57.296Z,5.07
2023-02-06T00:08:24.998Z,4.50
2023-02-06T00:10:52.816Z,4.78
2023-02-06T00:13:20.323Z,5.18
2023-02-06T00:15:48.102Z,5.03
2023-02-06T00:18:15.682Z,5.63
2023-02-06T00:20:44.534Z,4.37
2023-02-06T00:23:11.981Z,6.13
2023-02-06T00:25:39.430Z,7.50
2023-02-06T00:28:07.056Z,7.80
2023-02-06T00:30:34.591Z,6.25
2023-02-06T00:33:02.064Z,9.50
2023-02-06T00:35:29.588Z,11.35
2023-02-06T00:37:59.657Z,8.27
2023-02-06T00:40:27.113Z,6.32
2023-02-06T00:42:54.742Z,6.10
2023-02-06T00:45:22.183Z,4.77
2023-02-06T00:47:49.615Z,8.25
2023-02-06T00:50:17.649Z,5.72
2023-02-06T00:52:45.228Z,5.75
2023-02-06T00:55:14.320Z,5.07
2023-02-06T00:57:41.732Z,6.90
2023-02-06T01:00:10.794Z,7.28
2023-02-06T01:02:38.303Z,5.75
2023-02-06T01:05:06.632Z,8.27
2023-02-06T01:07:34.133Z,7.43
2023-02-06T01:10:01.565Z,7.50
2023-02-06T01:12:30.346Z,8.32
2023-02-06T01:14:57.852Z,10.43
2023-02-06T01:17:25.271Z,8.80
2023-02-06T01:19:52.945Z,7.85
2023-02-06T01:22:20.461Z,6.80
2023-02-06T01:24:47.926Z,4.07
2023-02-06T01:27:15.409Z,5.43
2023-02-06T01:29:44.179Z,8.38
2023-02-06T01:32:11.722Z,3.80
2023-02-06T01:34:39.162Z,5.73
2023-02-06T01:37:06.614Z,6.13
2023-02-06T01:39:34.077Z,5.88
2023-02-06T01:42:01.644Z,6.05
2023-02-06T01:44:29.151Z,5.15
2023-02-06T01:46:58.453Z,6.27
2023-02-06T01:49:31.191Z,8.52
2023-02-06T01:52:03.407Z,8.60
2023-02-06T01:54:31.183Z,6.32
2023-02-06T01:57:01.935Z,9.18
2023-02-06T01:59:29.606Z,8.13
2023-02-06T02:01:58.642Z,4.95
2023-02-06T02:04:29.736Z,9.63
2023-02-06T02:07:05.589Z,5.93
2023-02-06T02:09:34.499Z,5.88
2023-02-06T02:12:02.037Z,4.23
2023-02-06T02:14:29.741Z,5.07
2023-02-06T02:17:13.813Z,3.70
2023-02-06T02:20:21.559Z,8.05
2023-02-06T02:22:55.786Z,7.18
2023-02-06T02:25:52.266Z,3.97
2023-02-06T02:28:51.200Z,6.90
2023-02-06T02:31:36.273Z,8.27
2023-02-06T02:34:51.525Z,5.00
2023-02-06T02:37:26.518Z,5.25
2023-02-06T02:40:00.078Z,5.43
2023-02-06T02:42:34.687Z,7.50
2023-02-06T02:45:10.528Z,9.27
2023-02-06T02:47:46.787Z,5.82
2023-02-06T02:50:17.683Z,6.97
2023-02-06T02:52:46.249Z,5.57
2023-02-06T02:55:20.977Z,4.43
2023-02-06T02:57:51.667Z,7.93
2023-02-06T03:00:21.388Z,7.60
2023-02-06T03:02:51.733Z,7.25
2023-02-06T03:05:25.238Z,7.90
2023-02-06T03:08:03.769Z,3.58
2023-02-06T03:10:38.306Z,6.70
2023-02-06T03:13:11.695Z,7.18
2023-02-06T03:15:48.888Z,6.18
2023-02-06T03:18:23.056Z,6.53
2023-02-06T03:20:53.073Z,4.82
2023-02-06T03:23:24.740Z,5.13
2023-02-06T03:25:56.042Z,7.30
2023-02-06T03:28:26.632Z,7.13
2023-02-06T03:30:58.111Z,3.43
2023-02-06T03:33:29.802Z,6.07
2023-02-06T03:35:58.858Z,7.88
2023-02-06T03:38:28.312Z,8.20
2023-02-06T03:40:58.354Z,9.93
2023-02-06T03:43:27.454Z,8.13
2023-02-06T03:46:01.088Z,7.28
2023-02-06T03:48:32.503Z,8.25
2023-02-06T03:51:06.077Z,7.75
2023-02-06T03:53:35.872Z,11.23
2023-02-06T03:56:09.966Z,8.23
2023-02-06T03:58:37.730Z,8.77
2023-02-06T04:01:06.318Z,5.25
2023-02-06T04:03:34.432Z,9.20
2023-02-06T04:06:03.233Z,6.22
2023-02-06T04:08:30.726Z,6.57
2023-02-06T04:10:58.385Z,7.68
2023-02-06T04:13:25.807Z,8.80
2023-02-06T04:15:53.218Z,7.57
2023-02-06T04:18:20.662Z,4.25
2023-02-06T04:20:48.113Z,7.30
2023-02-06T04:23:17.528Z,7.70
2023-02-06T04:25:45.159Z,8.88
2023-02-06T04:28:12.650Z,7.60
2023-02-06T04:30:40.370Z,7.68
2023-02-06T04:33:07.854Z,7.20
2023-02-06T04:35:35.652Z,4.28
2023-02-06T04:38:03.286Z,7.85
2023-02-06T04:40:32.097Z,7.25
2023-02-06T04:42:59.704Z,4.38
2023-02-06T04:45:27.157Z,7.47
2023-02-06T04:47:54.627Z,5.93
2023-02-06T04:50:22.154Z,3.83
2023-02-06T04:52:49.621Z,5.30
2023-02-06T04:55:17.256Z,5.50
2023-02-06T04:57:46.022Z,2.97
2023-02-06T05:00:14.702Z,6.38
2023-02-06T05:02:42.771Z,4.68
2023-02-06T05:05:10.990Z,4.72
2023-02-06T05:07:38.693Z,4.68
2023-02-06T05:10:06.439Z,5.03
2023-02-06T05:12:33.920Z,7.25
2023-02-06T05:15:02.713Z,6.85
2023-02-06T05:17:30.235Z,6.30
2023-02-06T05:19:58.562Z,7.50
2023-02-06T05:22:26.745Z,6.60
2023-02-06T05:24:54.221Z,4.80
2023-02-06T05:27:21.758Z,3.65
2023-02-06T05:29:49.321Z,2.90
2023-02-06T05:32:19.270Z,6.38
2023-02-06T05:34:46.978Z,4.23
2023-02-06T05:37:14.436Z,9.13
2023-02-06T05:39:41.874Z,7.72
2023-02-06T05:42:09.312Z,4.47
2023-02-06T05:44:36.761Z,4.00
2023-02-06T05:47:04.341Z,6.20
2023-02-06T05:49:33.149Z,2.33
2023-02-06T05:52:00.751Z,2.22
2023-02-06T05:54:28.296Z,5.60
2023-02-06T05:56:57.061Z,6.55
2023-02-06T05:59:24.935Z,5.70
2023-02-06T06:01:52.451Z,6.55
2023-02-06T06:04:19.928Z,4.97
2023-02-06T06:06:48.711Z,5.88
2023-02-06T06:09:16.174Z,6.90
2023-02-06T06:11:43.603Z,6.00
2023-02-06T06:14:12.471Z,7.20
2023-02-06T06:16:40.601Z,4.35
2023-02-06T06:19:08.063Z,5.53
2023-02-06T06:21:35.877Z,6.88
2023-02-06T06:24:04.955Z,6.87
2023-02-06T06:26:32.804Z,3.83
2023-02-06T06:29:00.253Z,7.88
2023-02-06T06:31:27.824Z,7.03
2023-02-06T06:33:55.448Z,3.47
2023-02-06T06:36:22.960Z,7.37
2023-02-06T06:38:50.442Z,6.57
2023-02-06T06:41:19.271Z,9.10
2023-02-06T06:43:46.784Z,5.57
2023-02-06T06:46:14.287Z,5.85
2023-02-06T06:48:44.861Z,5.83
2023-02-06T06:51:12.576Z,7.00
2023-02-06T06:53:40.775Z,7.38
2023-02-06T06:56:11.441Z,6.78
2023-02-06T06:58:40.884Z,6.65
2023-02-06T07:01:08.854Z,6.13
2023-02-06T07:03:37.003Z,7.82
2023-02-06T07:06:05.052Z,6.22
2023-02-06T07:08:32.709Z,7.10
2023-02-06T07:11:00.399Z,6.95
2023-02-06T07:13:28.098Z,5.40
2023-02-06T07:15:56.879Z,7.78
2023-02-06T07:18:24.320Z,6.25
2023-02-06T07:20:51.878Z,5.90
2023-02-06T07:23:19.339Z,5.88
2023-02-06T07:25:46.804Z,8.13
2023-02-06T07:28:14.345Z,4.10
2023-02-06T07:30:42.010Z,4.97
2023-02-06T07:33:10.809Z,6.18
2023-02-06T07:35:38.405Z,6.05
2023-02-06T07:38:05.922Z,8.57
2023-02-06T07:40:44.633Z,8.40
2023-02-06T07:43:12.781Z,6.57
2023-02-06T07:45:40.332Z,6.25
2023-02-06T07:48:08.290Z,6.07
2023-02-06T07:50:37.147Z,8.67
2023-02-06T07:53:04.869Z,8.82
2023-02-06T07:55:32.440Z,9.98
2023-02-06T07:57:59.876Z,6.80
2023-02-06T08:00:27.322Z,6.55
2023-02-06T08:02:54.762Z,6.07
2023-02-06T08:05:22.208Z,6.35
2023-02-06T08:07:52.290Z,6.53
2023-02-06T08:10:19.780Z,5.93
2023-02-06T08:12:47.181Z,6.22
2023-02-06T08:15:14.661Z,6.73
2023-02-06T08:17:42.910Z,7.22
2023-02-06T08:20:11.633Z,10.13
2023-02-06T08:22:40.203Z,5.93
2023-02-06T08:25:09.767Z,9.93
2023-02-06T08:27:37.179Z,9.53
2023-02-06T08:30:05.305Z,8.50
2023-02-06T08:32:34.336Z,6.50
2023-02-06T08:35:01.839Z,7.32
2023-02-06T08:37:29.511Z,6.35
2023-02-06T08:39:56.961Z,6.63
2023-02-06T08:42:25.874Z,4.90
2023-02-06T08:44:53.702Z,6.15
2023-02-06T08:47:21.205Z,10.90
2023-02-06T08:49:50.433Z,5.68
2023-02-06T08:52:18.035Z,9.47
2023-02-06T08:54:45.496Z,10.95
2023-02-06T08:57:13.518Z,10.25
2023-02-06T08:59:42.345Z,7.38
2023-02-06T09:02:11.196Z,11.57
2023-02-06T09:04:39.015Z,7.63
2023-02-06T09:07:06.575Z,7.57
2023-02-06T09:09:34.018Z,11.48
2023-02-06T09:12:03.700Z,11.05
2023-02-06T09:14:32.180Z,6.55
2023-02-06T09:17:00.989Z,9.03
2023-02-06T09:19:28.466Z,7.78
2023-02-06T09:21:56.060Z,8.80
2023-02-06T09:24:23.757Z,5.82
2023-02-06T09:26:59.366Z,9.32
2023-02-06T09:29:28.883Z,7.53
2023-02-06T09:31:57.105Z,3.90
2023-02-06T09:34:26.624Z,6.53
2023-02-06T09:36:54.948Z,5.03
2023-02-06T09:39:22.661Z,6.30
2023-02-06T09:41:53.009Z,4.73
2023-02-06T09:44:26.541Z,6.07
2023-02-06T09:46:59.657Z,5.72
2023-02-06T09:49:36.499Z,3.65
2023-02-06T09:52:18.216Z,5.03
2023-02-06T09:54:54.764Z,4.40
2023-02-06T09:57:35.970Z,5.22
2023-02-06T10:00:12.440Z,4.43
2023-02-06T10:02:58.381Z,5.43
2023-02-06T10:05:40.752Z,5.47
2023-02-06T10:08:17.698Z,4.33
2023-02-06T10:10:48.517Z,4.35
2023-02-06T10:13:23.323Z,5.68
2023-02-06T10:15:55.000Z,4.38
2023-02-06T10:18:26.950Z,5.43
2023-02-06T10:20:58.304Z,3.90
2023-02-06T10:23:30.149Z,4.57
2023-02-06T10:26:06.429Z,6.13
2023-02-06T10:28:35.208Z,5.07
2023-02-06T10:31:24.793Z,4.22
2023-02-06T10:34:07.744Z,4.33
2023-02-06T10:36:48.600Z,4.70
2023-02-06T10:39:33.714Z,3.63
2023-02-06T10:42:08.654Z,4.38
2023-02-06T10:44:50.820Z,4.40
2023-02-06T10:47:30.374Z,3.60
2023-02-06T10:50:03.013Z,4.05
2023-02-06T10:52:39.219Z,4.40
2023-02-06T10:55:23.148Z,2.00
2023-02-06T10:57:58.278Z,3.50
2023-02-06T11:00:27.416Z,2.17
2023-02-06T11:03:07.133Z,4.45
2023-02-06T11:05:38.426Z,3.85
2023-02-06T11:08:17.260Z,4.50
2023-02-06T11:10:46.353Z,5.25
2023-02-06T11:13:16.207Z,3.90
2023-02-06T11:15:52.070Z,4.28
2023-02-06T11:18:22.583Z,4.50
2023-02-06T11:20:51.571Z,3.50
2023-02-06T11:23:23.167Z,4.15
2023-02-06T11:25:58.220Z,4.40
2023-02-06T11:28:37.402Z,2.58
2023-02-06T11:31:07.944Z,5.15
2023-02-06T11:33:46.560Z,4.28
2023-02-06T11:36:24.761Z,3.67
2023-02-06T11:38:57.830Z,4.45
2023-02-06T11:41:26.140Z,2.90
2023-02-06T11:44:02.266Z,4.03
2023-02-06T11:46:32.280Z,4.70
2023-02-06T11:49:08.678Z,3.90
2023-02-06T11:51:48.693Z,2.63
2023-02-06T11:54:22.450Z,3.78
2023-02-06T11:57:15.809Z,3.90
2023-02-06T11:59:52.161Z,3.78
2023-02-06T12:02:27.401Z,3.13
2023-02-06T12:05:02.453Z,3.58
2023-02-06T12:07:33.695Z,2.92
2023-02-06T12:10:02.658Z,2.65
2023-02-06T12:12:34.963Z,2.55
2023-02-06T12:15:36.270Z,3.45
2023-02-06T12:18:05.200Z,3.90
2023-02-06T12:20:34.884Z,3.22
2023-02-06T12:23:07.912Z,2.65
2023-02-06T12:25:37.708Z,1.92
2023-02-06T12:28:13.077Z,2.28
2023-02-06T12:30:48.749Z,2.63
2023-02-06T12:33:21.378Z,2.90
2023-02-06T12:35:52.940Z,1.95
2023-02-06T12:38:27.399Z,2.70
2023-02-06T12:41:08.830Z,3.05
2023-02-06T12:43:38.916Z,2.53
2023-02-06T12:46:13.482Z,3.10
2023-02-06T12:51:19.909Z,1.98
2023-02-06T12:53:52.608Z,2.00
2023-02-06T12:56:29.538Z,2.95
2023-02-06T12:59:06.864Z,2.67
2023-02-06T13:01:46.333Z,2.30
2023-02-06T13:04:17.095Z,3.20
2023-02-06T13:06:52.374Z,2.08
2023-02-06T13:09:25.912Z,2.95
2023-02-06T13:11:53.670Z,2.58
2023-02-06T13:14:23.642Z,2.13
2023-02-06T13:16:58.095Z,2.47
2023-02-06T13:19:50.299Z,3.00
2023-02-06T13:22:41.281Z,2.05
2023-02-06T13:25:42.159Z,4.50
2023-02-06T13:28:45.957Z,4.90
2023-02-06T13:31:30.052Z,2.78
2023-02-06T13:34:06.859Z,3.53
2023-02-06T13:37:18.357Z,5.40
2023-02-06T13:39:48.179Z,4.15
2023-02-06T13:42:44.639Z,3.65
2023-02-06T13:45:20.413Z,3.53
2023-02-06T13:48:14.718Z,1.98
2023-02-06T13:51:04.924Z,5.55
2023-02-06T13:53:52.959Z,3.83
2023-02-06T13:56:49.355Z,3.10
2023-02-06T13:59:20.364Z,4.50
2023-02-06T14:01:47.942Z,3.70
2023-02-06T14:04:22.819Z,5.38
2023-02-06T14:07:26.187Z,4.75
2023-02-06T14:10:11.090Z,2.05
2023-02-06T14:12:53.036Z,4.88
2023-02-06T14:15:30.838Z,4.38
2023-02-06T14:18:16.033Z,2.25
2023-02-06T14:20:50.360Z,4.40
2023-02-06T14:23:34.575Z,3.17
2023-02-06T14:26:25.448Z,3.17
2023-02-06T14:29:02.034Z,4.07
2023-02-06T14:31:48.659Z,2.85
2023-02-06T14:34:29.301Z,3.85
2023-02-06T14:37:13.840Z,3.13
2023-02-06T14:39:48.465Z,2.97
2023-02-06T14:42:20.701Z,5.13
2023-02-06T14:44:53.825Z,4.47
2023-02-06T14:47:23.943Z,4.28
2023-02-06T14:49:52.643Z,4.03
2023-02-06T14:52:23.249Z,3.33
2023-02-06T14:54:52.622Z,2.90
2023-02-06T14:57:25.663Z,4.85
2023-02-06T14:59:57.098Z,2.15
2023-02-06T15:02:28.231Z,3.47
2023-02-06T15:04:56.633Z,2.85
2023-02-06T15:07:28.757Z,4.15
2023-02-06T15:10:01.292Z,3.88
2023-02-06T15:12:30.063Z,3.15
2023-02-06T15:15:02.471Z,5.53
2023-02-06T15:17:31.238Z,6.55
2023-02-06T15:20:13.387Z,5.40
2023-02-06T15:22:40.906Z,5.07
2023-02-06T15:25:28.011Z,4.95
2023-02-06T15:28:00.723Z,6.55
2023-02-06T15:30:28.783Z,5.05
2023-02-06T15:32:56.828Z,6.38
2023-02-06T15:35:26.960Z,7.65
2023-02-06T15:37:56.544Z,6.38
2023-02-06T15:40:30.717Z,5.45
2023-02-06T15:42:59.662Z,4.47
2023-02-06T15:45:30.638Z,4.10
2023-02-06T15:48:08.230Z,5.20
2023-02-06T15:50:36.136Z,4.93
2023-02-06T15:53:18.409Z,5.97
2023-02-06T15:55:56.455Z,9.55
2023-02-06T15:58:25.703Z,5.40
2023-02-06T16:00:56.558Z,4.15
2023-02-06T16:03:27.027Z,7.30
2023-02-06T16:05:56.375Z,3.45
2023-02-06T16:08:28.731Z,5.43
2023-02-06T16:11:01.592Z,6.28
2023-02-06T16:13:31.009Z,2.90
2023-02-06T16:16:08.297Z,5.57
2023-02-06T16:18:37.791Z,3.38
2023-02-06T16:21:23.812Z,2.13
2023-02-06T16:23:53.808Z,6.13
2023-02-06T16:26:24.793Z,10.60
2023-02-06T16:28:59.069Z,3.47
2023-02-06T16:31:28.112Z,4.80
2023-02-06T16:34:02.894Z,5.32
2023-02-06T16:36:33.164Z,4.70
2023-02-06T16:39:04.349Z,5.80
2023-02-06T16:41:34.603Z,4.10
2023-02-06T16:44:03.337Z,7.15
2023-02-06T16:46:31.226Z,6.70
2023-02-06T16:49:00.305Z,5.00
2023-02-06T16:51:31.814Z,6.72
2023-02-06T16:53:59.463Z,7.63
2023-02-06T16:56:27.092Z,6.03
2023-02-06T16:58:55.901Z,3.85
2023-02-06T17:01:28.276Z,6.78
2023-02-06T17:03:56.473Z,8.82
2023-02-06T17:06:26.347Z,9.93
2023-02-06T17:08:56.536Z,9.45
2023-02-06T17:11:24.146Z,8.15
2023-02-06T17:13:51.574Z,11.30
2023-02-06T17:16:22.864Z,6.90
2023-02-06T17:18:51.772Z,7.32
2023-02-06T17:21:21.593Z,10.82
2023-02-06T17:23:50.734Z,4.53
2023-02-06T17:26:20.186Z,11.55
2023-02-06T17:28:48.326Z,6.85
2023-02-06T17:31:16.172Z,8.57
2023-02-06T17:33:45.206Z,9.27
2023-02-06T17:36:16.344Z,4.38
2023-02-06T17:38:43.820Z,5.47
2023-02-06T17:41:11.478Z,6.47
2023-02-06T17:43:38.940Z,8.45
2023-02-06T17:46:07.342Z,5.85
2023-02-06T17:48:36.672Z,6.18
2023-02-06T17:51:05.854Z,6.65
2023-02-06T17:53:33.373Z,5.32
2023-02-06T17:56:05.175Z,6.78
2023-02-06T17:58:33.026Z,8.63
2023-02-06T18:01:00.501Z,8.45
2023-02-06T18:03:28.138Z,6.03
2023-02-06T18:05:59.464Z,6.90
2023-02-06T18:08:30.005Z,6.68
2023-02-06T18:10:58.484Z,6.53
2023-02-06T18:13:28.156Z,4.18
2023-02-06T18:15:57.688Z,6.85
2023-02-06T18:18:25.965Z,8.45
2023-02-06T18:20:53.442Z,9.65
2023-02-06T18:23:20.913Z,10.77
2023-02-06T18:25:49.955Z,5.20
2023-02-06T18:28:18.091Z,10.35
2023-02-06T18:30:46.472Z,6.55
2023-02-06T18:33:14.063Z,6.90
2023-02-06T18:35:45.504Z,4.43
2023-02-06T18:38:14.149Z,4.95
2023-02-06T18:40:42.895Z,6.13
2023-02-06T18:43:11.637Z,6.25
2023-02-06T18:45:40.475Z,7.90
2023-02-06T18:48:10.721Z,5.97
2023-02-06T18:50:41.467Z,8.35
2023-02-06T18:53:09.715Z,5.50
2023-02-06T18:55:37.821Z,4.25
2023-02-06T18:58:06.016Z,4.05
2023-02-06T19:00:37.955Z,6.38
2023-02-06T19:03:05.881Z,4.63
2023-02-06T19:05:35.872Z,8.18
2023-02-06T19:08:03.472Z,7.27
2023-02-06T19:10:31.164Z,4.70
2023-02-06T19:12:58.736Z,5.85
2023-02-06T19:15:27.555Z,6.35
2023-02-06T19:17:56.457Z,8.43
2023-02-06T19:20:23.969Z,11.07
2023-02-06T19:22:53.518Z,8.45
2023-02-06T19:25:21.329Z,7.03
2023-02-06T19:27:48.897Z,7.60
2023-02-06T19:30:18.281Z,7.18
2023-02-06T19:32:48.616Z,9.43
2023-02-06T19:35:20.744Z,7.03
2023-02-06T19:37:48.354Z,6.90
2023-02-06T19:40:15.946Z,8.07
2023-02-06T19:42:43.484Z,9.02
2023-02-06T19:45:10.961Z,6.45
2023-02-06T19:47:38.465Z,6.85
2023-02-06T19:50:06.677Z,3.95
2023-02-06T19:52:35.575Z,9.00
2023-02-06T19:55:03.507Z,6.32
2023-02-06T19:57:32.411Z,5.68
2023-02-06T19:59:59.891Z,6.25
2023-02-06T20:02:27.419Z,3.85
2023-02-06T20:04:54.903Z,7.28
2023-02-06T20:07:22.514Z,3.95
2023-02-06T20:09:52.170Z,4.60
2023-02-06T20:12:19.704Z,4.28
2023-02-06T20:14:47.252Z,6.97
2023-02-06T20:17:14.845Z,5.75
2023-02-06T20:19:42.441Z,5.70
2023-02-06T20:22:10.365Z,6.38
2023-02-06T20:24:37.975Z,4.57
2023-02-06T20:27:08.419Z,8.57
2023-02-06T20:29:37.866Z,3.97
2023-02-06T20:32:06.504Z,4.80
2023-02-06T20:34:34.918Z,7.13
2023-02-06T20:37:02.633Z,6.50
2023-02-06T20:39:31.081Z,7.10
2023-02-06T20:41:59.143Z,4.13
2023-02-06T20:44:28.644Z,3.58
2023-02-06T20:46:56.269Z,5.40
2023-02-06T20:49:26.219Z,4.13
2023-02-06T20:51:56.767Z,8.25
2023-02-06T20:54:24.811Z,7.07
2023-02-06T20:56:52.615Z,2.38
2023-02-06T20:59:21.246Z,3.35
2023-02-06T21:01:50.177Z,7.47
2023-02-06T21:04:20.031Z,6.07
2023-02-06T21:06:49.894Z,5.57
2023-02-06T21:09:18.869Z,7.20
2023-02-06T21:11:50.523Z,7.50
2023-02-06T21:14:19.049Z,5.22
2023-02-06T21:16:47.403Z,7.05
2023-02-06T21:19:19.072Z,4.20
2023-02-06T21:21:46.611Z,3.70
2023-02-06T21:24:15.374Z,5.23
2023-02-06T21:26:43.384Z,2.88
2023-02-06T21:29:13.056Z,2.45
2023-02-06T21:31:40.891Z,3.95
2023-02-06T21:34:12.655Z,5.38
2023-02-06T21:36:42.036Z,2.27
2023-02-06T21:39:09.942Z,3.67
2023-02-06T21:41:38.085Z,2.22
2023-02-06T21:44:06.309Z,2.95
2023-02-06T21:46:34.441Z,3.95
2023-02-06T21:49:01.998Z,3.30
2023-02-06T21:51:29.519Z,3.83
2023-02-06T21:53:58.734Z,2.10
2023-02-06T21:56:29.953Z,2.20
2023-02-06T21:58:58.535Z,1.95
2023-02-06T22:01:27.653Z,1.87
2023-02-06T22:03:56.740Z,2.97
2023-02-06T22:06:24.551Z,2.50
2023-02-06T22:08:54.112Z,1.83
2023-02-06T22:11:25.639Z,2.13
2023-02-06T22:13:54.065Z,3.17
2023-02-06T22:16:23.546Z,1.67
2023-02-06T22:18:51.191Z,1.85
2023-02-06T22:21:20.675Z,1.38
2023-02-06T22:23:49.632Z,2.15
2023-02-06T22:26:19.927Z,3.33
2023-02-06T22:28:49.334Z,2.72
2023-02-06T22:31:18.683Z,2.72
2023-02-06T22:33:46.687Z,1.42
2023-02-06T22:36:16.050Z,2.75
2023-02-06T22:38:45.180Z,1.17
2023-02-06T22:41:15.793Z,1.60
2023-02-06T22:43:44.632Z,2.10
2023-02-06T22:46:20.148Z,2.30
2023-02-06T22:48:48.209Z,3.05
2023-02-06T22:51:15.685Z,2.40
2023-02-06T22:53:43.846Z,3.85
2023-02-06T22:56:29.473Z,2.97
2023-02-06T22:58:58.861Z,3.28
2023-02-06T23:01:30.475Z,2.85
2023-02-06T23:03:58.599Z,2.90
2023-02-06T23:06:27.583Z,2.38
2023-02-06T23:08:56.290Z,1.88
2023-02-06T23:11:24.914Z,3.15
2023-02-06T23:13:54.339Z,2.40
2023-02-06T23:16:22.773Z,2.47
2023-02-06T23:18:51.945Z,2.63
2023-02-06T23:21:21.674Z,1.05
2023-02-06T23:23:49.155Z,2.83
2023-02-06T23:26:19.471Z,2.40
2023-02-06T23:28:47.083Z,1.60
2023-02-06T23:31:15.117Z,3.47
2023-02-06T23:33:42.688Z,2.65
2023-02-06T23:36:14.281Z,2.50
2023-02-06T23:38:42.542Z,2.63
2023-02-06T23:41:11.702Z,2.83
2023-02-06T23:43:39.929Z,1.52
2023-02-06T23:46:11.709Z,1.42
2023-02-06T23:48:40.083Z,0.90
2023-02-06T23:51:08.285Z,1.55
2023-02-06T23:53:37.126Z,3.13
2023-02-06T23:56:10.954Z,2.72
2023-02-06T23:58:38.455Z,3.42
